Latest Weather Observations for Rundle Island

IDQ60801

Issued at 6:32 pm EST Saturday 3 June 2023 (issued every 10 minutes, with the page automatically refreshed every 10 minutes)

About weather observations | Map of weather stations | Latest weather observations for QLD | Other Formats
Station Details ID: 039322 Name: RUNDLE ISLAND Lat: -23.53 Lon: 151.28 Height: 19.8 m
Data from the previous 72 hours. | See also: Recent months at Rundle Island
Date/Time
EST
Temp
°C
App
Temp
°C
Dew
Point
°C
Rel
Hum
%
Delta-T
°C
Wind Press
QNH
hPa
Press
MSL
hPa
Rain since
9am
mm
Dir  Spd
km/h
Gust
km/h
Spd
kts
Gust
kts
03/06:30pm 21.8 - - - - SE 26 28 14 15 1021.6 1021.5 -
03/06:00pm 21.8 - - - - SE 26 30 14 16 1021.3 1021.2 -
03/05:30pm 21.7 - - - - SE 24 28 13 15 1021.0 1020.9 -
03/05:00pm 21.7 - - - - ESE 24 26 13 14 1021.1 1021.0 -
03/04:30pm 21.6 - - - - ESE 24 28 13 15 1021.0 1020.9 -
03/04:00pm 21.5 - - - - ESE 15 17 8 9 1021.2 1021.1 -
03/03:30pm 21.8 - - - - E 13 15 7 8 1021.2 1021.1 -
03/03:00pm 21.8 - - - - E 17 20 9 11 1021.2 1021.1 -
03/02:30pm 21.2 - - - - E 26 30 14 16 1021.1 1021.0 -
03/02:00pm 21.6 - - - - SE 17 20 9 11 1021.3 1021.2 -
03/01:30pm 21.4 - - - - SSE 17 20 9 11 1021.4 1021.3 -
03/01:00pm 21.5 - - - - SSE 20 22 11 12 1021.6 1021.5 -
03/12:30pm 21.4 - - - - SE 17 26 9 14 1022.2 1022.1 -
03/12:00pm 21.0 - - - - SE 24 28 13 15 1022.3 1022.2 -
03/11:30am 20.9 - - - - SE 24 26 13 14 1022.6 1022.5 -
03/11:00am 20.7 - - - - SSE 22 26 12 14 1022.7 1022.6 -
03/10:30am 20.5 - - - - SSE 24 26 13 14 1023.0 1022.9 -
03/10:00am 20.2 - - - - SSE 24 28 13 15 1023.4 1023.3 -
03/09:30am 20.3 - - - - SSE 26 28 14 15 1023.6 1023.5 -
03/09:00am 20.5 - - - - SSE 26 30 14 16 1023.3 1023.2 -
03/08:30am 20.2 - - - - SSE 28 30 15 16 1022.8 1022.7 -
03/08:00am 20.4 - - - - SE 26 28 14 15 1022.5 1022.4 -
03/07:30am 20.4 - - - - SSE 24 28 13 15 1022.2 1022.1 -
03/07:00am 20.1 - - - - SSE 26 30 14 16 1021.8 1021.7 -
03/06:30am 20.1 - - - - SSE 26 30 14 16 1021.7 1021.6 -
03/06:00am 20.2 - - - - SSE 28 32 15 17 1021.3 1021.2 -
03/05:30am 20.2 - - - - SSE 30 33 16 18 1021.0 1020.9 -
03/05:00am 20.3 - - - - SE 32 35 17 19 1020.8 1020.7 -
03/04:30am 20.3 - - - - SE 30 33 16 18 1020.7 1020.6 -
03/04:00am 20.3 - - - - SE 32 35 17 19 1020.6 1020.5 -
03/03:30am 20.4 - - - - SE 30 33 16 18 1020.6 1020.5 -
03/03:00am 20.5 - - - - SE 30 37 16 20 1020.6 1020.5 -
03/02:30am 20.4 - - - - SSE 32 35 17 19 1020.8 1020.7 -
03/02:00am 20.5 - - - - SE 30 33 16 18 1021.1 1021.0 -
03/01:30am 20.8 - - - - SSE 26 32 14 17 1021.5 1021.4 -
03/01:00am 20.4 - - - - SSE 30 33 16 18 1021.5 1021.4 -
03/12:30am 20.9 - - - - SSE 30 33 16 18 1021.7 1021.6 -
03/12:00am 20.9 - - - - SSE 28 32 15 17 1021.7 1021.6 -
 
Date/Time
EST
Temp
°C
App
Temp
°C
Dew
Point
°C
Rel
Hum
%
Delta-T
°C
Wind Press
QNH
hPa
Press
MSL
hPa
Rain since
9am
mm
Dir  Spd
km/h
Gust
km/h
Spd
kts
Gust
kts
02/11:30pm 21.9 - - - - SE 26 28 14 15 1022.1 1022.0 -
02/11:00pm 21.9 - - - - SE 22 28 12 15 1022.2 1022.1 -
02/10:30pm 21.7 - - - - SE 24 28 13 15 1022.4 1022.3 -
02/10:00pm 21.7 - - - - SE 26 30 14 16 1022.5 1022.4 -
02/09:30pm 21.8 - - - - ESE 26 30 14 16 1022.3 1022.2 -
02/09:00pm 21.8 - - - - ESE 28 32 15 17 1022.3 1022.2 -
02/08:30pm 21.8 - - - - ESE 26 30 14 16 1022.1 1022.0 -
02/08:00pm 21.8 - - - - ESE 28 30 15 16 1021.9 1021.8 -
02/07:30pm 21.9 - - - - ESE 30 32 16 17 1021.7 1021.6 -
02/07:00pm 21.8 - - - - ESE 30 35 16 19 1021.4 1021.3 -
02/06:30pm 22.0 - - - - ESE 30 33 16 18 1020.9 1020.8 -
02/06:00pm 21.9 - - - - ESE 26 28 14 15 1020.7 1020.6 -
02/05:30pm 21.8 - - - - ESE 24 26 13 14 1020.7 1020.6 -
02/05:00pm 21.8 - - - - ESE 24 28 13 15 1020.5 1020.4 -
02/04:30pm 21.8 - - - - ESE 22 26 12 14 1020.2 1020.1 -
02/04:00pm 21.6 - - - - ESE 24 26 13 14 1020.1 1020.0 -
02/03:30pm 21.8 - - - - SE 22 26 12 14 1020.0 1019.9 -
02/03:00pm 21.9 - - - - SE 24 26 13 14 1020.2 1020.1 -
02/02:30pm 21.9 - - - - SE 20 24 11 13 1020.2 1020.1 -
02/02:00pm 21.9 - - - - SE 22 26 12 14 1020.3 1020.2 -
02/01:30pm 21.6 - - - - SE 22 24 12 13 1020.3 1020.2 -
02/01:00pm 21.4 - - - - SE 19 22 10 12 1020.5 1020.4 -
02/12:30pm 21.5 - - - - SSE 19 20 10 11 1021.0 1020.9 -
02/12:00pm 21.3 - - - - SSE 20 22 11 12 1021.2 1021.1 -
02/11:30am 20.9 - - - - SSE 20 24 11 13 1021.5 1021.4 -
02/11:00am 20.5 - - - - SSE 26 28 14 15 1021.7 1021.6 -
02/10:30am 20.1 - - - - SSE 24 26 13 14 1021.9 1021.8 -
02/10:00am 20.3 - - - - SSE 20 24 11 13 1021.9 1021.8 -
02/09:30am 20.2 - - - - SSE 19 20 10 11 1021.8 1021.7 -
02/09:00am 19.6 - - - - SSE 20 24 11 13 1021.6 1021.5 -
02/08:30am 19.4 - - - - SSE 20 24 11 13 1021.5 1021.4 -
02/08:00am 19.3 - - - - S 19 20 10 11 1021.4 1021.3 -
02/07:30am 18.9 - - - - SSE 19 20 10 11 1021.0 1020.9 -
02/07:00am 19.0 - - - - S 17 19 9 10 1020.7 1020.6 -
02/06:30am 19.0 - - - - S 19 20 10 11 1020.4 1020.3 -
02/06:00am 19.1 - - - - S 17 19 9 10 1020.2 1020.1 -
02/05:30am 19.2 - - - - S 17 19 9 10 1020.1 1020.0 -
02/05:00am 19.0 - - - - S 19 22 10 12 1019.7 1019.6 -
02/04:30am 19.0 - - - - S 20 22 11 12 1019.7 1019.6 -
02/04:00am 19.1 - - - - S 19 20 10 11 1019.9 1019.8 -
02/03:30am 19.2 - - - - S 17 20 9 11 1019.9 1019.8 -
02/03:00am 19.5 - - - - S 15 17 8 9 1020.0 1019.9 -
02/02:30am 19.9 - - - - SSE 13 15 7 8 1020.1 1020.0 -
02/02:00am 19.9 - - - - S 13 15 7 8 1020.2 1020.1 -
02/01:30am 19.8 - - - - S 13 15 7 8 1020.4 1020.3 -
02/01:00am 19.9 - - - - S 13 15 7 8 1020.4 1020.3 -
02/12:30am 21.6 - - - - E 9 9 5 5 1020.5 1020.4 -
02/12:00am 21.6 - - - - E 11 11 6 6 1020.6 1020.5 -
 
Date/Time
EST
Temp
°C
App
Temp
°C
Dew
Point
°C
Rel
Hum
%
Delta-T
°C
Wind Press
QNH
hPa
Press
MSL
hPa
Rain since
9am
mm
Dir  Spd
km/h
Gust
km/h
Spd
kts
Gust
kts
01/11:30pm 21.6 - - - - E 13 13 7 7 1020.6 1020.5 -
01/11:00pm 21.7 - - - - E 13 15 7 8 1020.7 1020.6 -
01/10:30pm 21.6 - - - - E 13 15 7 8 1020.8 1020.7 -
01/10:00pm 21.8 - - - - E 13 15 7 8 1020.7 1020.6 -
01/09:30pm 21.8 - - - - E 15 17 8 9 1020.6 1020.5 -
01/09:00pm 21.7 - - - - E 19 20 10 11 1020.4 1020.3 -
01/08:30pm 21.8 - - - - E 20 22 11 12 1020.1 1020.0 -
01/08:00pm 21.8 - - - - ENE 20 22 11 12 1019.9 1019.8 -
01/07:30pm 21.6 - - - - ENE 20 24 11 13 1019.6 1019.5 -
01/07:00pm 21.7 - - - - ENE 22 24 12 13 1019.3 1019.2 -
01/06:30pm 21.7 - - - - ENE 19 20 10 11 1019.0 1018.9 -
01/06:00pm 21.6 - - - - ENE 20 22 11 12 1018.8 1018.7 -
01/05:30pm 21.5 - - - - ENE 19 20 10 11 1018.6 1018.5 -
01/05:00pm 21.5 - - - - ENE 19 20 10 11 1018.5 1018.4 -
01/04:30pm 21.4 - - - - E 19 20 10 11 1018.5 1018.4 -
01/04:00pm 21.5 - - - - E 17 19 9 10 1018.5 1018.4 -
01/03:30pm 21.4 - - - - E 17 20 9 11 1018.5 1018.4 -
01/03:00pm 21.3 - - - - E 19 20 10 11 1018.5 1018.4 -
01/02:30pm 21.1 - - - - ESE 15 17 8 9 1018.6 1018.5 -
01/02:00pm 21.4 - - - - ESE 13 15 7 8 1018.8 1018.7 -
01/01:30pm 21.6 - - - - SE 9 11 5 6 1019.1 1019.0 -
01/01:00pm 21.2 - - - - SE 11 13 6 7 1019.2 1019.1 -
01/12:30pm 21.1 - - - - SE 13 15 7 8 1019.6 1019.5 -
01/12:00pm 20.9 - - - - SE 13 15 7 8 1020.0 1019.9 -
01/11:30am 21.2 - - - - SSE 15 17 8 9 1020.3 1020.2 -
01/11:00am 20.4 - - - - SE 17 17 9 9 1020.6 1020.5 -
01/10:30am 20.2 - - - - SSE 17 19 9 10 1021.0 1020.9 -
01/10:00am 20.1 - - - - SSE 19 20 10 11 1021.4 1021.3 -
01/09:30am 19.8 - - - - SSE 15 19 8 10 1021.5 1021.4 -
01/09:00am 19.3 - - - - S 17 19 9 10 1021.2 1021.1 -
01/08:30am 19.6 - - - - S 19 22 10 12 1021.3 1021.2 -
01/08:00am 19.4 - - - - S 20 22 11 12 1021.1 1021.0 -
01/07:30am 18.7 - - - - S 20 24 11 13 1020.9 1020.8 -
01/07:00am 18.4 - - - - S 19 20 10 11 1020.7 1020.6 -
01/06:30am 18.7 - - - - S 19 20 10 11 1020.3 1020.2 -
01/06:00am 18.8 - - - - S 17 20 9 11 1020.2 1020.1 -
01/05:30am 18.7 - - - - S 17 20 9 11 1020.1 1020.0 -
01/05:00am 18.7 - - - - SSE 19 20 10 11 1019.9 1019.8 -
01/04:30am 18.7 - - - - S 20 22 11 12 1019.8 1019.7 -
01/04:00am 18.7 - - - - S 22 24 12 13 1019.9 1019.8 -
01/03:30am 18.7 - - - - S 20 24 11 13 1020.1 1020.0 -
01/03:00am 18.8 - - - - S 20 22 11 12 1020.2 1020.1 -
01/02:30am 18.9 - - - - SSW 20 22 11 12 1020.3 1020.2 -
01/02:00am 21.7 - - - - E 15 17 8 9 1020.4 1020.3 -
01/01:30am 21.4 - - - - E 17 20 9 11 1020.6 1020.5 -
01/01:00am 21.6 - - - - E 17 19 9 10 1020.9 1020.8 -
01/12:30am 21.4 - - - - E 20 22 11 12 1021.0 1020.9 -
01/12:00am 21.4 - - - - E 20 22 11 12 1021.3 1021.2 -
 
Date/Time
EST
Temp
°C
App
Temp
°C
Dew
Point
°C
Rel
Hum
%
Delta-T
°C
Wind Press
QNH
hPa
Press
MSL
hPa
Rain since
9am
mm
Dir  Spd
km/h
Gust
km/h
Spd
kts
Gust
kts
31/11:30pm 21.5 - - - - E 20 24 11 13 1021.6 1021.5 -
31/11:00pm 21.4 - - - - E 22 24 12 13 1021.5 1021.4 -
31/10:30pm 21.3 - - - - E 22 24 12 13 1021.6 1021.5 -
31/10:00pm 21.4 - - - - E 24 28 13 15 1021.3 1021.2 -
31/09:30pm 21.3 - - - - E 24 28 13 15 1021.4 1021.3 -
31/09:00pm 21.3 - - - - E 24 28 13 15 1021.6 1021.5 -
31/08:30pm 21.1 - - - - E 24 26 13 14 1021.7 1021.6 -
31/08:00pm 21.1 - - - - E 24 26 13 14 1021.6 1021.5 -
31/07:30pm 21.3 - - - - E 26 28 14 15 1021.3 1021.2 -
31/07:00pm 21.1 - - - - E 24 26 13 14 1021.2 1021.1 -

Other formats

Comma delimited format used in spreadsheet applications
http://www.bom.gov.au/fwo/IDQ60801/IDQ60801.94378.axf

JavaScript Object Notation format (JSON) in row-major order
http://www.bom.gov.au/fwo/IDQ60801/IDQ60801.94378.json

Data quality

Most of these data are generated automatically and are frequently updated. Quality checks on data are not normally performed. It is possible for incorrect values to appear. Refer to information at About Latest Weather Observations and please check the disclaimer before using these data.